GCLP/LPA METAR and TAF weather

Enter ICAO airport designator
Station Type Date Time Source
GCLP METAR 2019/07/17 18:30 UTC NOAA

GCLP 171830Z 01025KT 9999 FEW022 23/17 Q1018 NOSIG


Station Type Date Time Source
GCLP Decoded METAR 2019/07/17 18:30 UTC NOAA

Gran Canaria - Canary Islands, Spain (GCLP) 27-56N 015-23W 47M
Jul 17, 2019 - 02:30 PM EDT / 2019.07.17 1830 UTC
Wind: from the N (010 degrees) at 29 MPH (25 KT):0
Visibility: greater than 7 mile(s):0
Sky conditions: mostly clear
Temperature: 73 F (23 C)
Dew Point: 62 F (17 C)
Relative Humidity: 68%
Pressure (altimeter): 30.06 in. Hg (1018 hPa)
ob: GCLP 171830Z 01025KT 9999 FEW022 23/17 Q1018 NOSIG
cycle: 18

Station Type Date Time Source
GCLP TAF 2019/07/17 15:27 UTC NOAA

TAF GCLP 171400Z 1715/1815 36024KT 9999 SCT025 TX26/1715Z TN20/1805Z PROB40
TEMPO 1715/1721 36022G32KT

Example: see airport list